createdAt,value
2023-10-07T00:00:41.631Z,13.57
2023-10-07T00:03:08.407Z,10.80
2023-10-07T00:05:40.590Z,13.95
2023-10-07T00:10:39.205Z,13.10
2023-10-07T00:13:10.991Z,12.75
2023-10-07T00:15:38.571Z,10.70
2023-10-07T00:18:14.493Z,12.73
2023-10-07T00:20:43.989Z,10.70
2023-10-07T00:23:10.878Z,10.32
2023-10-07T00:25:39.389Z,9.77
2023-10-07T00:28:19.026Z,10.25
2023-10-07T00:30:50.628Z,11.00
2023-10-07T00:33:22.751Z,8.48
2023-10-07T00:38:24.856Z,13.65
2023-10-07T00:40:57.137Z,13.15
2023-10-07T00:43:29.000Z,11.25
2023-10-07T00:46:12.286Z,11.15
2023-10-07T00:48:46.622Z,10.80
2023-10-07T00:51:14.499Z,8.88
2023-10-07T00:53:46.993Z,12.98
2023-10-07T00:56:17.537Z,10.88
2023-10-07T00:58:47.991Z,12.93
2023-10-07T01:01:15.860Z,10.65
2023-10-07T01:03:57.090Z,11.63
2023-10-07T01:06:27.381Z,15.00
2023-10-07T01:08:59.844Z,10.35
2023-10-07T01:11:31.105Z,11.30
2023-10-07T01:13:58.634Z,12.40
2023-10-07T01:16:28.395Z,10.60
2023-10-07T01:19:04.299Z,9.15
2023-10-07T01:21:34.628Z,11.82
2023-10-07T01:24:06.758Z,10.88
2023-10-07T01:29:16.870Z,11.15
2023-10-07T01:32:00.785Z,10.90
2023-10-07T01:34:31.490Z,16.63
2023-10-07T01:37:02.138Z,12.10
2023-10-07T01:39:41.834Z,11.80
2023-10-07T01:42:13.777Z,14.48
2023-10-07T01:44:42.209Z,14.02
2023-10-07T01:47:24.746Z,11.48
2023-10-07T01:49:55.116Z,9.60
2023-10-07T01:52:28.594Z,14.05
2023-10-07T01:54:56.561Z,10.70
2023-10-07T01:57:23.325Z,13.30
2023-10-07T01:59:50.849Z,12.70
2023-10-07T02:02:17.496Z,11.90
2023-10-07T02:04:44.187Z,15.45
2023-10-07T02:07:10.915Z,11.00
2023-10-07T02:09:42.056Z,10.57
2023-10-07T02:12:12.984Z,12.77
2023-10-07T02:14:40.311Z,14.20
2023-10-07T02:17:09.749Z,12.43
2023-10-07T02:19:36.780Z,10.75
2023-10-07T02:22:05.062Z,10.52
2023-10-07T02:24:33.428Z,13.63
2023-10-07T02:27:01.102Z,10.10
2023-10-07T02:29:29.438Z,12.10
2023-10-07T02:32:07.750Z,12.13
2023-10-07T02:34:35.200Z,11.13
2023-10-07T02:37:22.269Z,10.70
2023-10-07T02:39:52.685Z,12.18
2023-10-07T02:42:22.957Z,13.45
2023-10-07T02:45:01.874Z,10.02
2023-10-07T02:47:32.900Z,10.98
2023-10-07T02:50:02.829Z,12.32
2023-10-07T02:52:37.452Z,12.40
2023-10-07T02:55:28.670Z,10.18
2023-10-07T02:57:58.432Z,10.57
2023-10-07T03:00:53.062Z,9.27
2023-10-07T03:03:26.132Z,9.55
2023-10-07T03:06:10.917Z,10.68
2023-10-07T03:08:55.808Z,11.48
2023-10-07T03:11:22.748Z,13.77
2023-10-07T03:13:51.632Z,13.95
2023-10-07T03:16:21.995Z,11.88
2023-10-07T03:18:57.799Z,11.57
2023-10-07T03:21:36.649Z,13.75
2023-10-07T03:24:09.299Z,12.32
2023-10-07T03:26:36.173Z,10.13
2023-10-07T03:29:06.646Z,10.40
2023-10-07T03:31:41.226Z,10.40
2023-10-07T03:34:13.459Z,14.10
2023-10-07T03:39:23.536Z,10.25
2023-10-07T03:42:01.024Z,11.18
2023-10-07T03:44:29.219Z,11.05
2023-10-07T03:46:56.739Z,8.88
2023-10-07T03:49:24.632Z,10.05
2023-10-07T03:52:13.381Z,11.88
2023-10-07T03:54:43.995Z,11.82
2023-10-07T03:57:11.094Z,10.73
2023-10-07T03:59:38.685Z,9.25
2023-10-07T04:02:24.279Z,13.52
2023-10-07T04:05:01.290Z,14.02
2023-10-07T04:07:32.326Z,12.30
2023-10-07T04:10:25.359Z,12.80
2023-10-07T04:12:57.509Z,11.52
2023-10-07T04:15:30.572Z,12.55
2023-10-07T04:18:01.077Z,12.57
2023-10-07T04:20:48.137Z,11.40
2023-10-07T04:23:22.180Z,16.05
2023-10-07T04:25:48.958Z,11.98
2023-10-07T04:28:15.599Z,11.80
2023-10-07T04:30:48.494Z,10.60
2023-10-07T04:33:18.963Z,11.18
2023-10-07T04:35:50.776Z,11.00
2023-10-07T04:38:40.210Z,10.82
2023-10-07T04:41:22.720Z,11.32
2023-10-07T04:44:09.223Z,12.25
2023-10-07T04:46:44.196Z,10.07
2023-10-07T04:49:14.325Z,12.55
2023-10-07T04:51:44.620Z,11.02
2023-10-07T04:54:12.760Z,10.55
2023-10-07T04:56:41.068Z,11.88
2023-10-07T04:59:08.175Z,14.65
2023-10-07T05:01:35.884Z,13.00
2023-10-07T05:04:06.479Z,13.77
2023-10-07T05:06:37.106Z,11.25
2023-10-07T05:09:10.854Z,11.13
2023-10-07T05:11:45.039Z,12.60
2023-10-07T05:14:12.174Z,11.65
2023-10-07T05:16:39.611Z,10.05
2023-10-07T05:19:21.001Z,12.57
2023-10-07T05:22:00.167Z,11.18
2023-10-07T05:24:30.921Z,13.48
2023-10-07T05:27:01.293Z,12.18
2023-10-07T05:29:29.501Z,14.82
2023-10-07T05:31:57.807Z,11.80
2023-10-07T05:34:31.658Z,12.48
2023-10-07T05:37:04.957Z,11.98
2023-10-07T05:39:33.915Z,10.40
2023-10-07T05:42:04.522Z,11.07
2023-10-07T05:44:31.780Z,12.32
2023-10-07T05:47:00.431Z,12.32
2023-10-07T05:49:27.197Z,13.50
2023-10-07T05:51:54.416Z,16.13
2023-10-07T05:54:21.256Z,15.18
2023-10-07T05:56:50.717Z,16.00
2023-10-07T05:59:17.398Z,16.52
2023-10-07T06:01:44.383Z,21.98
2023-10-07T06:04:12.900Z,22.27
2023-10-07T06:06:43.368Z,15.25
2023-10-07T06:09:15.174Z,33.15
2023-10-07T06:11:45.836Z,23.20
2023-10-07T06:14:13.097Z,21.42
2023-10-07T06:16:41.237Z,24.38
2023-10-07T06:19:09.107Z,23.58
2023-10-07T06:21:35.917Z,20.50
2023-10-07T06:24:08.040Z,23.10
2023-10-07T06:26:36.551Z,22.13
2023-10-07T06:29:07.607Z,22.60
2023-10-07T06:31:34.831Z,16.67
2023-10-07T06:34:02.166Z,22.65
2023-10-07T06:36:33.407Z,20.67
2023-10-07T06:39:02.565Z,19.07
2023-10-07T06:41:30.997Z,25.85
2023-10-07T06:44:05.550Z,22.08
2023-10-07T06:46:42.184Z,25.73
2023-10-07T06:49:18.297Z,24.00
2023-10-07T06:51:46.613Z,21.17
2023-10-07T06:54:15.354Z,17.20
2023-10-07T06:56:42.031Z,16.48
2023-10-07T06:59:14.178Z,21.00
2023-10-07T07:04:12.781Z,18.25
2023-10-07T07:06:46.575Z,13.25
2023-10-07T07:09:36.122Z,14.18
2023-10-07T07:12:05.785Z,19.20
2023-10-07T07:14:34.781Z,15.13
2023-10-07T07:17:35.178Z,19.42
2023-10-07T07:20:12.367Z,21.15
2023-10-07T07:22:44.414Z,17.00
2023-10-07T07:25:27.884Z,18.65
2023-10-07T07:27:54.621Z,16.48
2023-10-07T07:30:40.489Z,13.85
2023-10-07T07:33:09.081Z,15.88
2023-10-07T07:35:41.207Z,16.15
2023-10-07T07:38:26.880Z,14.15
2023-10-07T07:41:07.168Z,17.38
2023-10-07T07:43:35.505Z,12.82
2023-10-07T07:46:19.378Z,13.75
2023-10-07T07:48:46.949Z,17.15
2023-10-07T07:51:18.032Z,14.90
2023-10-07T07:53:45.445Z,16.05
2023-10-07T07:56:14.901Z,17.17
2023-10-07T07:58:51.004Z,23.23
2023-10-07T08:01:29.949Z,13.63
2023-10-07T08:04:00.593Z,13.15
2023-10-07T08:06:27.611Z,14.85
2023-10-07T08:08:55.149Z,14.30
2023-10-07T08:11:22.571Z,13.48
2023-10-07T08:13:54.391Z,13.88
2023-10-07T08:16:21.566Z,17.73
2023-10-07T08:18:55.577Z,12.65
2023-10-07T08:21:29.803Z,12.98
2023-10-07T08:24:02.530Z,9.50
2023-10-07T08:26:29.921Z,14.68
2023-10-07T08:28:59.394Z,10.43
2023-10-07T08:31:39.714Z,8.43
2023-10-07T08:34:10.734Z,10.90
2023-10-07T08:36:40.166Z,12.05
2023-10-07T08:39:07.587Z,8.75
2023-10-07T08:41:34.343Z,10.23
2023-10-07T08:44:17.075Z,11.60
2023-10-07T08:46:55.486Z,9.88
2023-10-07T08:49:27.284Z,9.32
2023-10-07T08:51:55.878Z,10.13
2023-10-07T08:54:33.175Z,10.80
2023-10-07T08:57:10.188Z,9.65
2023-10-07T08:59:39.143Z,9.18
2023-10-07T09:02:05.895Z,9.88
2023-10-07T09:04:33.208Z,8.88
2023-10-07T09:07:10.156Z,9.32
2023-10-07T09:09:40.671Z,12.25
2023-10-07T09:12:29.671Z,8.68
2023-10-07T09:14:59.230Z,7.55
2023-10-07T09:17:29.224Z,10.27
2023-10-07T09:19:59.941Z,11.80
2023-10-07T09:22:35.685Z,10.50
2023-10-07T09:25:18.478Z,8.18
2023-10-07T09:27:55.832Z,10.70
2023-10-07T09:30:45.780Z,10.25
2023-10-07T09:33:18.866Z,9.75
2023-10-07T09:36:11.250Z,10.70
2023-10-07T09:38:43.090Z,8.32
2023-10-07T09:41:13.970Z,18.98
2023-10-07T09:43:53.320Z,12.60
2023-10-07T09:48:58.671Z,11.93
2023-10-07T09:51:29.635Z,10.02
2023-10-07T09:54:03.728Z,7.05
2023-10-07T09:57:01.088Z,12.27
2023-10-07T09:59:33.342Z,7.93
2023-10-07T10:02:27.206Z,9.50
2023-10-07T10:05:16.084Z,9.25
2023-10-07T10:08:14.621Z,6.93
2023-10-07T10:10:46.055Z,10.02
2023-10-07T10:13:53.412Z,8.80
2023-10-07T10:16:45.463Z,7.40
2023-10-07T10:19:19.172Z,8.70
2023-10-07T10:21:45.938Z,8.90
2023-10-07T10:24:16.666Z,8.38
2023-10-07T10:26:45.506Z,10.30
2023-10-07T10:29:18.350Z,11.65
2023-10-07T10:31:52.246Z,8.90
2023-10-07T10:34:21.493Z,10.52
2023-10-07T10:36:51.002Z,8.95
2023-10-07T10:39:40.323Z,7.32
2023-10-07T10:42:11.524Z,7.97
2023-10-07T10:44:39.623Z,8.00
2023-10-07T10:47:09.094Z,7.88
2023-10-07T10:49:36.414Z,9.48
2023-10-07T10:52:03.966Z,10.48
2023-10-07T10:54:30.837Z,10.65
2023-10-07T10:56:59.449Z,6.32
2023-10-07T10:59:38.197Z,8.95
2023-10-07T11:02:06.520Z,9.23
2023-10-07T11:04:33.408Z,7.35
2023-10-07T11:07:01.208Z,5.88
2023-10-07T11:09:36.978Z,7.18
2023-10-07T11:12:11.217Z,7.93
2023-10-07T11:14:39.679Z,5.35
2023-10-07T11:17:07.199Z,8.38
2023-10-07T11:19:41.642Z,7.18
2023-10-07T11:22:08.405Z,5.85
2023-10-07T11:24:36.380Z,6.60
2023-10-07T11:27:03.984Z,6.70
2023-10-07T11:29:33.709Z,7.78
2023-10-07T11:32:02.260Z,5.82
2023-10-07T11:34:34.368Z,6.32
2023-10-07T11:37:10.253Z,5.53
2023-10-07T11:39:44.327Z,6.20
2023-10-07T11:42:16.361Z,5.45
2023-10-07T11:44:47.317Z,9.10
2023-10-07T11:47:17.769Z,8.57
2023-10-07T11:49:48.380Z,5.72
2023-10-07T11:52:18.976Z,7.10
2023-10-07T11:54:49.729Z,6.15
2023-10-07T11:57:21.282Z,6.68
2023-10-07T11:59:47.909Z,5.15
2023-10-07T12:02:16.602Z,6.57
2023-10-07T12:04:48.716Z,5.50
2023-10-07T12:07:17.508Z,6.93
2023-10-07T12:09:52.222Z,8.98
2023-10-07T12:12:19.125Z,6.10
2023-10-07T12:14:47.463Z,4.75
2023-10-07T12:17:15.755Z,8.00
2023-10-07T12:19:42.584Z,8.50
2023-10-07T12:22:09.855Z,7.57
2023-10-07T12:24:38.564Z,5.80
2023-10-07T12:27:07.884Z,5.13
2023-10-07T12:29:35.154Z,6.03
2023-10-07T12:32:02.016Z,4.93
2023-10-07T12:34:31.395Z,8.02
2023-10-07T12:36:58.036Z,5.80
2023-10-07T12:39:24.737Z,4.75
2023-10-07T12:41:51.355Z,5.38
2023-10-07T12:44:18.210Z,5.78
2023-10-07T12:46:45.421Z,5.70
2023-10-07T12:49:15.299Z,4.72
2023-10-07T12:51:43.798Z,5.00
2023-10-07T12:54:11.372Z,8.02
2023-10-07T12:56:49.271Z,9.10
2023-10-07T12:59:19.508Z,5.32
2023-10-07T13:01:51.848Z,5.13
2023-10-07T13:04:20.668Z,6.45
2023-10-07T13:06:49.963Z,5.90
2023-10-07T13:09:19.208Z,6.18
2023-10-07T13:11:46.977Z,9.50
2023-10-07T13:14:14.195Z,7.68
2023-10-07T13:16:46.609Z,6.68
2023-10-07T13:19:15.166Z,12.93
2023-10-07T13:21:42.927Z,5.95
2023-10-07T13:24:12.835Z,7.97
2023-10-07T13:26:39.977Z,9.02
2023-10-07T13:29:11.658Z,5.20
2023-10-07T13:31:41.822Z,7.32
2023-10-07T13:34:08.763Z,4.82
2023-10-07T13:36:40.170Z,5.10
2023-10-07T13:39:16.645Z,8.38
2023-10-07T13:41:48.190Z,4.40
2023-10-07T13:44:18.329Z,6.35
2023-10-07T13:46:46.586Z,5.72
2023-10-07T13:49:16.898Z,8.02
2023-10-07T13:51:45.812Z,6.03
2023-10-07T13:54:23.443Z,7.43
2023-10-07T13:56:58.577Z,7.07
2023-10-07T13:59:26.092Z,6.90
2023-10-07T14:01:53.901Z,4.95
2023-10-07T14:04:21.230Z,6.05
2023-10-07T14:06:49.025Z,5.30
2023-10-07T14:09:25.480Z,5.35
2023-10-07T14:11:58.281Z,5.57
2023-10-07T14:14:28.650Z,6.72
2023-10-07T14:16:59.701Z,7.07
2023-10-07T14:19:28.182Z,5.75
2023-10-07T14:21:54.868Z,10.10
2023-10-07T14:24:29.210Z,5.18
2023-10-07T14:26:57.440Z,5.30
2023-10-07T14:29:24.290Z,6.03
2023-10-07T14:31:53.145Z,7.70
2023-10-07T14:34:19.931Z,8.63
2023-10-07T14:36:47.087Z,11.23
2023-10-07T14:39:14.213Z,9.93
2023-10-07T14:41:42.746Z,5.03
2023-10-07T14:44:10.225Z,6.57
2023-10-07T14:46:43.626Z,7.40
2023-10-07T14:49:11.578Z,8.90
2023-10-07T14:51:38.624Z,7.15
2023-10-07T14:54:05.559Z,7.13
2023-10-07T14:56:32.243Z,6.32
2023-10-07T14:59:00.962Z,7.50
2023-10-07T15:01:28.948Z,8.07
2023-10-07T15:03:56.415Z,8.07
2023-10-07T15:06:23.814Z,14.30
2023-10-07T15:08:51.438Z,6.55
2023-10-07T15:11:19.744Z,5.45
2023-10-07T15:13:47.100Z,13.70
2023-10-07T15:16:14.040Z,6.78
2023-10-07T15:18:42.533Z,5.88
2023-10-07T15:21:12.917Z,6.00
2023-10-07T15:23:40.553Z,8.13
2023-10-07T15:26:14.063Z,9.88
2023-10-07T15:28:40.978Z,8.20
2023-10-07T15:31:09.405Z,6.93
2023-10-07T15:33:53.758Z,11.95
2023-10-07T15:36:20.467Z,9.45
2023-10-07T15:38:50.159Z,8.32
2023-10-07T15:41:17.735Z,11.20
2023-10-07T15:43:44.621Z,7.65
2023-10-07T15:46:11.455Z,6.05
2023-10-07T15:48:38.160Z,7.40
2023-10-07T15:51:07.606Z,7.07
2023-10-07T15:53:34.810Z,6.78
2023-10-07T15:56:07.795Z,7.75
2023-10-07T15:58:35.137Z,8.63
2023-10-07T16:01:04.685Z,6.97
2023-10-07T16:03:34.348Z,7.85
2023-10-07T16:06:01.456Z,7.60
2023-10-07T16:08:28.308Z,6.05
2023-10-07T16:10:55.054Z,7.60
2023-10-07T16:13:21.806Z,6.90
2023-10-07T16:15:48.453Z,8.43
2023-10-07T16:18:15.141Z,11.15
2023-10-07T16:20:42.573Z,10.95
2023-10-07T16:23:09.923Z,8.13
2023-10-07T16:25:36.622Z,7.97
2023-10-07T16:28:06.012Z,8.38
2023-10-07T16:30:32.847Z,9.50
2023-10-07T16:32:59.574Z,7.50
2023-10-07T16:35:26.314Z,8.82
2023-10-07T16:37:53.212Z,10.40
2023-10-07T16:40:20.155Z,10.45
2023-10-07T16:42:47.166Z,10.18
2023-10-07T16:45:14.216Z,6.25
2023-10-07T16:47:41.370Z,9.88
2023-10-07T16:50:10.127Z,10.05
2023-10-07T16:52:37.761Z,9.55
2023-10-07T16:55:07.673Z,6.90
2023-10-07T16:57:38.290Z,11.05
2023-10-07T17:00:06.775Z,10.00
2023-10-07T17:02:34.558Z,9.35
2023-10-07T17:05:02.653Z,12.50
2023-10-07T17:07:29.393Z,10.65
2023-10-07T17:09:56.984Z,8.32
2023-10-07T17:12:24.987Z,8.65
2023-10-07T17:14:51.767Z,13.10
2023-10-07T17:17:18.666Z,13.57
2023-10-07T17:19:45.435Z,13.02
2023-10-07T17:22:12.945Z,14.63
2023-10-07T17:24:43.943Z,10.15
2023-10-07T17:27:11.820Z,14.90
2023-10-07T17:29:40.157Z,10.60
2023-10-07T17:32:07.322Z,13.55
2023-10-07T17:34:34.449Z,10.88
2023-10-07T17:37:02.523Z,18.42
2023-10-07T17:39:33.107Z,9.23
2023-10-07T17:42:01.899Z,8.23
2023-10-07T17:44:28.791Z,14.75
2023-10-07T17:46:56.952Z,15.50
2023-10-07T17:49:24.289Z,12.27
2023-10-07T17:51:50.961Z,14.43
2023-10-07T17:54:17.721Z,13.15
2023-10-07T17:56:45.389Z,13.45
2023-10-07T17:59:12.918Z,13.43
2023-10-07T18:01:39.833Z,14.45
2023-10-07T18:04:06.822Z,14.07
2023-10-07T18:06:33.591Z,13.13
2023-10-07T18:09:00.255Z,11.23
2023-10-07T18:11:27.035Z,11.05
2023-10-07T18:13:53.764Z,16.50
2023-10-07T18:16:20.614Z,11.10
2023-10-07T18:18:47.280Z,10.05
2023-10-07T18:21:13.867Z,10.25
2023-10-07T18:23:40.655Z,13.60
2023-10-07T18:26:07.576Z,12.30
2023-10-07T18:28:34.250Z,10.02
2023-10-07T18:31:02.462Z,10.07
2023-10-07T18:33:30.039Z,12.43
2023-10-07T18:35:57.742Z,12.68
2023-10-07T18:38:24.458Z,13.30
2023-10-07T18:40:52.358Z,9.57
2023-10-07T18:43:19.286Z,8.57
2023-10-07T18:45:45.898Z,13.82
2023-10-07T18:48:13.212Z,13.40
2023-10-07T18:50:40.117Z,10.00
2023-10-07T18:53:06.943Z,10.05
2023-10-07T18:55:34.031Z,9.77
2023-10-07T18:58:08.951Z,9.30
2023-10-07T19:00:36.363Z,12.02
2023-10-07T19:03:03.215Z,9.10
2023-10-07T19:05:30.481Z,16.33
2023-10-07T19:07:57.517Z,10.55
2023-10-07T19:10:26.445Z,12.68
2023-10-07T19:12:53.171Z,10.13
2023-10-07T19:15:19.859Z,13.80
2023-10-07T19:17:47.801Z,11.27
2023-10-07T19:20:15.038Z,10.05
2023-10-07T19:22:43.051Z,18.85
2023-10-07T19:25:15.319Z,11.23
2023-10-07T19:30:11.465Z,19.15
2023-10-07T19:32:42.482Z,15.63
2023-10-07T19:35:10.083Z,11.13
2023-10-07T19:37:36.945Z,14.65
2023-10-07T19:40:05.422Z,14.52
2023-10-07T19:42:32.173Z,16.10
2023-10-07T19:44:58.869Z,14.63
2023-10-07T19:47:25.709Z,20.35
2023-10-07T19:49:52.757Z,12.45
2023-10-07T19:52:19.419Z,16.63
2023-10-07T19:54:46.093Z,11.50
2023-10-07T19:57:13.457Z,15.35
2023-10-07T19:59:40.263Z,12.90
2023-10-07T20:02:07.094Z,11.55
2023-10-07T20:04:33.887Z,11.43
2023-10-07T20:07:00.613Z,11.48
2023-10-07T20:09:27.340Z,9.73
2023-10-07T20:11:54.035Z,11.57
2023-10-07T20:14:20.705Z,8.57
2023-10-07T20:16:47.489Z,12.48
2023-10-07T20:19:15.338Z,8.77
2023-10-07T20:21:42.601Z,12.98
2023-10-07T20:24:10.064Z,10.35
2023-10-07T20:26:38.616Z,11.90
2023-10-07T20:29:05.395Z,14.10
2023-10-07T20:31:32.057Z,11.10
2023-10-07T20:33:58.672Z,12.90
2023-10-07T20:36:25.300Z,13.65
2023-10-07T20:38:54.801Z,10.70
2023-10-07T20:41:21.706Z,11.30
2023-10-07T20:43:48.284Z,9.88
2023-10-07T20:46:15.135Z,9.95
2023-10-07T20:48:42.255Z,10.07
2023-10-07T20:51:11.700Z,12.02
2023-10-07T20:53:40.671Z,8.93
2023-10-07T20:56:09.021Z,12.27
2023-10-07T20:58:36.198Z,10.93
2023-10-07T21:01:07.007Z,12.05
2023-10-07T21:03:33.999Z,11.18
2023-10-07T21:06:03.387Z,13.57
2023-10-07T21:08:30.380Z,8.82
2023-10-07T21:10:57.121Z,8.00
2023-10-07T21:13:23.747Z,10.25
2023-10-07T21:15:50.441Z,9.00
2023-10-07T21:18:17.100Z,11.25
2023-10-07T21:20:44.638Z,10.50
2023-10-07T21:23:14.967Z,8.82
2023-10-07T21:25:47.094Z,12.07
2023-10-07T21:28:15.790Z,11.65
2023-10-07T21:30:49.812Z,14.00
2023-10-07T21:33:17.887Z,10.98
2023-10-07T21:35:45.654Z,9.40
2023-10-07T21:38:13.840Z,9.90
2023-10-07T21:40:42.924Z,12.68
2023-10-07T21:43:11.144Z,13.05
2023-10-07T21:45:38.393Z,21.30
2023-10-07T21:48:06.527Z,9.63
2023-10-07T21:50:34.793Z,10.18
2023-10-07T21:53:05.512Z,13.05
2023-10-07T21:55:34.070Z,11.68
2023-10-07T21:58:02.005Z,11.60
2023-10-07T22:00:28.848Z,10.85
2023-10-07T22:02:56.968Z,11.40
2023-10-07T22:05:26.974Z,9.43
2023-10-07T22:07:54.811Z,13.27
2023-10-07T22:10:33.053Z,11.50
2023-10-07T22:13:01.622Z,10.68
2023-10-07T22:15:28.319Z,10.13
2023-10-07T22:17:57.279Z,13.15
2023-10-07T22:20:24.220Z,15.02
2023-10-07T22:22:52.611Z,12.20
2023-10-07T22:25:19.611Z,12.88
2023-10-07T22:27:47.831Z,12.80
2023-10-07T22:30:18.749Z,9.65
2023-10-07T22:32:46.860Z,10.25
2023-10-07T22:35:23.696Z,10.98
2023-10-07T22:37:59.021Z,11.02
2023-10-07T22:40:32.993Z,10.27
2023-10-07T22:43:00.347Z,11.30
2023-10-07T22:45:51.143Z,10.60
2023-10-07T22:48:20.641Z,11.10
2023-10-07T22:51:10.364Z,9.98
2023-10-07T22:53:45.488Z,11.80
2023-10-07T22:56:20.914Z,11.25
2023-10-07T22:58:49.586Z,13.25
2023-10-07T23:01:40.852Z,13.23
2023-10-07T23:04:22.839Z,11.85
2023-10-07T23:06:57.442Z,11.80
2023-10-07T23:09:30.292Z,12.63
2023-10-07T23:11:57.037Z,15.18
2023-10-07T23:14:23.990Z,13.55
2023-10-07T23:16:53.113Z,13.60
2023-10-07T23:19:19.947Z,12.32
2023-10-07T23:22:01.096Z,16.70
2023-10-07T23:24:39.892Z,15.75
2023-10-07T23:27:09.225Z,13.88
2023-10-07T23:29:45.433Z,11.40
2023-10-07T23:32:20.013Z,12.63
2023-10-07T23:34:46.804Z,14.10
2023-10-07T23:37:17.682Z,12.25
2023-10-07T23:39:49.506Z,15.20
2023-10-07T23:42:23.833Z,13.80
2023-10-07T23:44:54.296Z,11.77
2023-10-07T23:47:24.076Z,11.48
2023-10-07T23:49:58.765Z,17.98
2023-10-07T23:52:27.200Z,11.82
2023-10-07T23:54:59.441Z,10.35
2023-10-07T23:59:58.779Z,12.07
